Time;durP1;ratioP1;P1;durP2;ratioP2;P2;SDS_P1;SDS_P2;PMS_P1;PMS_P2;Temp;Humidity;BMP_temperature;BMP_pressure;BME280_temperature;BME280_humidity;BME280_pressure;Samples;Min_cycle;Max_cycle;Signal;HPM_P1;HPM_P2
2022/11/18 03:02:43;;;;;;;3.13;2.93;;;8.20;99.90;;;;;;5048161;23;20224;-86
2022/11/18 03:05:23;;;;;;;3.40;3.07;;;8.20;99.90;;;;;;4913593;29;20694;-84
2022/11/18 03:08:02;;;;;;;3.23;3.03;;;8.20;99.90;;;;;;4919861;29;20203;-84
2022/11/18 03:10:39;;;;;;;3.40;3.20;;;8.20;99.90;;;;;;4901551;29;20294;-86
2022/11/18 03:13:15;;;;;;;3.73;3.40;;;8.20;99.90;;;;;;4892963;29;20204;-86
2022/11/18 03:15:51;;;;;;;3.93;3.63;;;8.20;99.90;;;;;;4897189;29;20200;-86
2022/11/18 03:18:36;;;;;;;4.90;3.70;;;8.20;99.90;;;;;;4887285;29;20208;-86
2022/11/18 03:21:08;;;;;;;5.33;3.90;;;8.20;99.90;;;;;;4885141;29;20232;-84
2022/11/18 03:23:39;;;;;;;4.10;3.70;;;8.20;99.90;;;;;;4897113;29;20633;-83
2022/11/18 03:26:10;;;;;;;5.07;4.67;;;8.20;99.90;;;;;;4895443;29;20239;-83
2022/11/18 03:28:46;;;;;;;4.70;4.30;;;8.20;99.90;;;;;;4888622;29;20234;-84
2022/11/18 03:31:19;;;;;;;5.33;4.83;;;8.20;99.90;;;;;;4894070;29;20235;-85
2022/11/18 03:33:54;;;;;;;9.23;8.63;;;8.20;99.90;;;;;;4890329;29;20204;-84
2022/11/18 03:36:27;;;;;;;6.33;5.87;;;8.20;99.90;;;;;;4890772;29;20201;-85
2022/11/18 03:38:59;;;;;;;7.30;6.70;;;8.30;99.90;;;;;;4881085;29;20218;-86
2022/11/18 03:44:59;;;;;;;10.97;10.23;;;8.30;99.90;;;;;;4886827;29;20204;-85
2022/11/18 03:47:30;;;;;;;7.20;6.60;;;8.20;99.90;;;;;;4892460;29;20284;-84
2022/11/18 03:50:05;;;;;;;7.00;6.40;;;8.20;99.90;;;;;;4892157;29;20733;-85
2022/11/18 03:53:01;;;;;;;10.00;9.13;;;8.30;99.90;;;;;;4897581;29;20229;-85
2022/11/18 03:55:58;;;;;;;9.13;8.37;;;8.30;99.90;;;;;;4896282;29;20211;-83
2022/11/18 03:59:04;;;;;;;5.97;5.47;;;8.30;99.90;;;;;;4877098;29;20209;-85
2022/11/18 04:02:11;;;;;;;5.80;5.10;;;8.30;99.90;;;;;;4890272;29;20232;-85
2022/11/18 04:09:03;;;;;;;6.67;6.07;;;8.30;99.90;;;;;;4841364;29;20202;-84
2022/11/18 04:12:23;;;;;;;10.83;10.13;;;8.30;99.90;;;;;;4862903;29;20232;-84
2022/11/18 04:19:13;;;;;;;6.93;6.43;;;8.20;99.90;;;;;;4876081;29;20224;-85
2022/11/18 04:22:01;;;;;;;6.13;5.63;;;8.20;99.90;;;;;;4844840;29;20248;-85
2022/11/18 04:24:31;;;;;;;5.77;4.80;;;8.20;99.90;;;;;;4857576;29;20419;-83
2022/11/18 04:27:03;;;;;;;4.43;4.10;;;8.20;99.90;;;;;;4895764;29;20204;-85
2022/11/18 04:29:44;;;;;;;4.63;4.23;;;8.30;99.90;;;;;;4890358;29;20204;-85
2022/11/18 04:32:28;;;;;;;4.47;4.07;;;8.30;99.90;;;;;;4895667;29;20243;-85
2022/11/18 04:34:58;;;;;;;4.50;4.20;;;8.30;99.90;;;;;;4877335;29;20243;-81
2022/11/18 04:41:54;;;;;;;4.27;3.63;;;8.20;99.90;;;;;;4872865;29;20216;-83
2022/11/18 04:44:39;;;;;;;5.07;4.67;;;8.20;99.90;;;;;;4879723;29;20203;-82
2022/11/18 04:47:19;;;;;;;3.90;3.60;;;8.20;99.90;;;;;;4891241;29;20216;-83
2022/11/18 04:49:54;;;;;;;5.10;4.70;;;8.20;99.90;;;;;;4890065;29;20228;-83
2022/11/18 04:52:30;;;;;;;4.60;4.30;;;8.20;99.90;;;;;;4896397;29;20795;-83
2022/11/18 04:55:26;;;;;;;;;;;;;;;;;;;;;
2022/11/18 05:10:14;;;;;;;12.33;11.63;;;7.80;99.90;;;;;;4864269;29;20252;-84
2022/11/18 05:13:45;;;;;;;;;;;;;;;;;;;;;
2022/11/18 05:38:11;;;;;;;5.67;5.37;;;7.70;99.90;;;;;;4903507;29;20227;-84
2022/11/18 05:59:30;;;;;;;3.77;3.57;;;7.70;99.90;;;;;;4784170;29;20215;-84
2022/11/18 06:21:29;;;;;;;3.53;3.33;;;7.90;99.90;;;;;;4909573;23;20518;-84
2022/11/18 06:49:00;;;;;;;3.77;3.47;;;7.80;99.90;;;;;;4868429;29;20232;-83
2022/11/18 06:54:31;;;;;;;4.10;3.70;;;7.80;99.90;;;;;;4878835;29;20241;-83
2022/11/18 06:57:23;;;;;;;3.53;3.30;;;7.80;99.90;;;;;;4871010;29;20273;-84
2022/11/18 07:00:27;;;;;;;3.60;3.20;;;7.80;99.90;;;;;;4867062;29;20201;-83
2022/11/18 07:03:08;;;;;;;3.10;2.97;;;7.80;99.90;;;;;;4874230;29;20291;-83
2022/11/18 07:06:17;;;;;;;3.33;3.10;;;7.80;99.90;;;;;;4876211;29;20220;-83
2022/11/18 07:12:41;;;;;;;3.93;3.63;;;7.80;99.90;;;;;;4876481;29;20715;-83
2022/11/18 07:16:04;;;;;;;3.50;3.23;;;7.80;99.90;;;;;;4875626;29;20260;-83
2022/11/18 07:18:55;;;;;;;8.20;7.73;;;7.90;99.90;;;;;;4877846;29;20295;-83
2022/11/18 07:21:48;;;;;;;11.00;10.40;;;7.90;99.90;;;;;;4877680;29;20605;-83
2022/11/18 07:24:34;;;;;;;8.17;7.67;;;7.90;99.90;;;;;;4870761;29;20212;-83
2022/11/18 07:27:42;;;;;;;5.40;5.10;;;8.00;99.90;;;;;;4865508;29;20737;-83
2022/11/18 07:37:09;;;;;;;;;;;;;;;;;;;;;
2022/11/18 07:43:01;;;;;;;3.13;2.90;;;8.20;99.90;;;;;;4856511;29;20236;-83
2022/11/18 07:45:37;;;;;;;3.03;2.90;;;8.20;99.90;;;;;;4880720;29;20200;-83
2022/11/18 07:51:28;;;;;;;6.33;5.90;;;8.30;99.90;;;;;;4842168;29;20266;-83
2022/11/18 07:54:44;;;;;;;6.07;5.43;;;8.40;99.90;;;;;;4877980;29;20213;-83
2022/11/18 07:58:00;;;;;;;12.20;11.50;;;8.40;99.90;;;;;;4880356;29;20213;-83
2022/11/18 08:04:00;;;;;;;7.00;6.60;;;8.50;99.90;;;;;;4868435;29;20208;-83
2022/11/18 08:06:51;;;;;;;;;;;;;;;;;;;;;
2022/11/18 08:09:28;;;;;;;3.67;3.47;;;8.40;99.90;;;;;;4873142;29;20201;-83
2022/11/18 08:11:55;;;;;;;3.60;3.40;;;8.50;99.90;;;;;;4872815;29;20260;-84
2022/11/18 08:14:23;;;;;;;2.70;2.60;;;8.50;99.90;;;;;;4879356;29;20221;-85
2022/11/18 08:16:50;;;;;;;3.10;2.90;;;8.50;99.90;;;;;;4880342;29;20204;-84
2022/11/18 08:19:17;;;;;;;3.13;3.00;;;8.50;99.90;;;;;;4880546;29;20237;-85
2022/11/18 08:21:45;;;;;;;3.40;3.20;;;8.50;99.90;;;;;;4874574;29;20237;-85
2022/11/18 08:24:12;;;;;;;4.73;4.33;;;8.50;99.90;;;;;;4871633;29;20217;-85
2022/11/18 08:26:39;;;;;;;2.93;2.80;;;8.50;99.90;;;;;;4880771;29;20253;-85
2022/11/18 08:29:08;;;;;;;12.47;11.77;;;8.50;99.90;;;;;;4880181;29;20213;-85
2022/11/18 08:31:35;;;;;;;3.93;3.73;;;8.50;99.90;;;;;;4876119;29;20650;-86
2022/11/18 08:34:05;;;;;;;3.20;3.00;;;8.50;99.90;;;;;;4872285;29;20229;-84
2022/11/18 08:36:34;;;;;;;2.80;2.70;;;8.50;99.90;;;;;;4871666;29;20202;-86
2022/11/18 08:39:05;;;;;;;4.50;4.20;;;8.50;99.90;;;;;;4880240;29;20300;-85
2022/11/18 08:41:34;;;;;;;3.60;3.40;;;8.50;99.90;;;;;;4875656;29;20300;-84
2022/11/18 08:44:01;;;;;;;4.20;4.00;;;8.50;99.90;;;;;;4880273;29;20632;-85
2022/11/18 08:46:28;;;;;;;3.17;2.90;;;8.50;99.90;;;;;;4877618;29;20698;-85
2022/11/18 08:48:55;;;;;;;3.00;2.80;;;8.50;99.90;;;;;;4872761;29;20257;-84
2022/11/18 08:51:22;;;;;;;3.80;3.60;;;8.50;99.90;;;;;;4871321;29;20237;-85
2022/11/18 08:53:50;;;;;;;2.90;2.77;;;8.50;99.90;;;;;;4881163;29;20205;-85
2022/11/18 08:56:21;;;;;;;4.03;3.80;;;8.50;99.90;;;;;;4872816;29;20632;-86
2022/11/18 08:58:52;;;;;;;2.83;2.73;;;8.50;99.90;;;;;;4873752;29;20209;-84
2022/11/18 09:01:19;;;;;;;3.50;3.20;;;8.60;99.90;;;;;;4880359;29;20306;-83
2022/11/18 10:09:06;;;;;;;4.27;4.07;;;9.40;99.90;;;;;;4877613;29;20221;-87
2022/11/18 10:11:40;;;;;;;3.70;3.50;;;9.40;99.90;;;;;;4873651;29;20221;-81
2022/11/18 10:14:18;;;;;;;3.10;2.90;;;9.50;99.90;;;;;;4880594;29;20216;-81
2022/11/18 10:16:57;;;;;;;6.50;6.13;;;9.40;99.90;;;;;;4876378;29;20256;-81
2022/11/18 10:46:19;;;;;;;11.70;11.10;;;9.70;99.90;;;;;;1840399;23;20235;-83
2022/11/18 10:48:47;;;;;;;5.53;5.17;;;9.80;99.90;;;;;;4929127;29;20204;-81
2022/11/18 10:51:22;;;;;;;4.67;4.47;;;9.80;99.90;;;;;;4919150;29;20230;-82
2022/11/18 10:53:49;;;;;;;5.03;4.73;;;9.80;99.90;;;;;;4901733;29;20305;-82
2022/11/18 10:56:17;;;;;;;3.90;3.60;;;9.80;99.90;;;;;;4914060;29;20200;-82
2022/11/18 10:58:47;;;;;;;7.50;7.10;;;9.80;99.90;;;;;;4900317;29;20276;-82
2022/11/18 11:01:22;;;;;;;9.17;8.57;;;9.80;99.90;;;;;;4904773;29;20249;-82
2022/11/18 11:03:59;;;;;;;8.10;7.70;;;9.90;99.90;;;;;;4908018;29;20602;-82
2022/11/18 11:06:36;;;;;;;5.77;5.47;;;9.90;99.90;;;;;;4911106;29;20240;-81
2022/11/18 11:09:09;;;;;;;11.37;10.77;;;9.90;99.90;;;;;;4909973;29;20201;-83
2022/11/18 11:11:39;;;;;;;9.93;9.40;;;9.90;99.90;;;;;;4912839;29;20228;-82
2022/11/18 11:14:22;;;;;;;12.03;11.37;;;9.90;99.90;;;;;;4913455;29;20232;-82
2022/11/18 11:16:57;;;;;;;3.10;2.90;;;9.90;99.90;;;;;;4904433;29;20635;-82
2022/11/18 11:19:30;;;;;;;3.43;3.23;;;10.00;99.90;;;;;;4895095;29;20212;-82
2022/11/18 11:21:57;;;;;;;6.23;5.93;;;10.10;99.90;;;;;;4899562;29;20232;-82
2022/11/18 11:24:27;;;;;;;2.97;2.87;;;10.20;99.90;;;;;;4901580;29;20204;-82
2022/11/18 11:27:05;;;;;;;11.80;11.20;;;10.30;99.90;;;;;;4897604;29;20216;-82
2022/11/18 11:30:04;;;;;;;12.67;11.97;;;10.50;99.90;;;;;;4905207;29;20639;-82
2022/11/18 11:32:51;;;;;;;11.30;10.70;;;10.50;99.90;;;;;;4910329;29;20709;-82
2022/11/18 11:35:22;;;;;;;11.13;10.53;;;10.60;99.90;;;;;;4904567;29;20216;-82
2022/11/18 11:37:53;;;;;;;11.07;10.47;;;10.50;99.90;;;;;;4911247;29;20204;-82
2022/11/18 11:40:28;;;;;;;10.90;10.30;;;10.50;99.90;;;;;;4908906;29;20278;-82
2022/11/18 11:43:09;;;;;;;11.03;10.43;;;10.60;99.90;;;;;;4917782;29;20305;-82
2022/11/18 11:45:42;;;;;;;11.00;10.40;;;10.80;99.90;;;;;;4883398;29;20202;-82
2022/11/18 11:48:22;;;;;;;8.27;7.80;;;11.00;99.90;;;;;;4912997;29;20221;-82
2022/11/18 11:50:54;;;;;;;4.20;4.00;;;11.30;99.90;;;;;;4908426;29;20291;-82
2022/11/18 11:53:45;;;;;;;2.90;2.70;;;11.40;99.90;;;;;;4916615;29;20231;-82
2022/11/18 11:56:17;;;;;;;4.63;4.23;;;11.30;99.90;;;;;;4914841;29;20209;-83
2022/11/18 11:59:04;;;;;;;4.27;4.03;;;11.00;99.90;;;;;;4896876;29;20203;-82
2022/11/18 12:01:36;;;;;;;11.50;10.80;;;10.80;99.90;;;;;;4910475;29;20228;-82
2022/11/18 12:04:21;;;;;;;10.70;10.10;;;10.70;99.90;;;;;;4911558;29;20207;-82
2022/11/18 12:06:53;;;;;;;11.40;10.70;;;10.70;99.90;;;;;;4909995;29;20237;-82
2022/11/18 12:09:28;;;;;;;6.50;6.20;;;10.70;99.90;;;;;;4892147;29;20216;-82
2022/11/18 12:12:01;;;;;;;7.07;6.67;;;10.80;99.90;;;;;;4909853;29;20229;-82
2022/11/18 12:14:33;;;;;;;9.67;9.13;;;10.80;99.90;;;;;;4902506;29;20206;-82
2022/11/18 12:17:10;;;;;;;8.97;8.47;;;10.80;99.90;;;;;;4912268;29;20215;-82
2022/11/18 12:19:39;;;;;;;6.73;6.37;;;10.80;99.90;;;;;;4907187;29;20214;-82
2022/11/18 12:22:06;;;;;;;4.73;4.43;;;10.90;99.90;;;;;;4905024;29;20237;-82
2022/11/18 12:24:35;;;;;;;3.83;3.63;;;11.00;99.90;;;;;;4906424;29;20210;-82
2022/11/18 12:27:06;;;;;;;2.20;2.10;;;10.90;99.90;;;;;;4889148;29;20218;-82
2022/11/18 12:29:54;;;;;;;2.20;2.10;;;10.80;99.90;;;;;;4911231;29;20736;-82
2022/11/18 12:32:35;;;;;;;2.67;2.20;;;10.80;99.90;;;;;;4896789;29;20262;-82
2022/11/18 12:35:24;;;;;;;2.40;2.30;;;10.80;99.90;;;;;;4894601;29;20649;-80
2022/11/18 12:38:01;;;;;;;6.77;6.37;;;10.70;99.90;;;;;;4892388;29;20208;-83
2022/11/18 12:40:43;;;;;;;2.53;2.40;;;10.70;99.90;;;;;;4896665;29;20283;-82
2022/11/18 12:43:47;;;;;;;5.33;5.03;;;10.60;99.90;;;;;;4904283;29;20219;-83
2022/11/18 12:46:49;;;;;;;4.20;4.00;;;10.50;99.90;;;;;;4919139;29;20233;-83
2022/11/18 12:49:53;;;;;;;10.03;9.43;;;10.40;99.90;;;;;;4916972;29;20207;-83
2022/11/18 12:52:51;;;;;;;10.23;9.63;;;10.40;99.90;;;;;;4912573;29;20223;-82
2022/11/18 12:55:24;;;;;;;10.60;10.00;;;10.40;99.90;;;;;;4909616;29;20292;-83
2022/11/18 12:57:51;;;;;;;10.90;10.20;;;10.30;99.90;;;;;;4909028;29;20206;-83
2022/11/18 13:00:51;;;;;;;6.40;6.10;;;10.30;99.90;;;;;;4913989;29;20197;-82
2022/11/18 13:03:27;;;;;;;5.13;4.83;;;10.40;99.90;;;;;;4911502;29;20265;-80
2022/11/18 13:06:04;;;;;;;4.17;3.17;;;10.30;99.90;;;;;;4903403;29;20623;-80
2022/11/18 13:08:56;;;;;;;4.13;3.67;;;10.20;99.90;;;;;;4900804;29;20235;-84
2022/11/18 13:11:55;;;;;;;11.20;10.53;;;10.10;99.90;;;;;;4905367;29;20248;-85
2022/11/18 13:17:54;;;;;;;10.40;9.80;;;10.00;99.90;;;;;;4839752;29;20195;-84
2022/11/18 13:20:52;;;;;;;2.30;2.20;;;10.00;99.90;;;;;;4877678;29;20225;-84
2022/11/18 13:26:25;;;;;;;3.00;2.90;;;10.20;99.90;;;;;;4900523;29;20203;-85
2022/11/18 13:29:10;;;;;;;6.87;6.50;;;10.40;99.90;;;;;;4903590;29;20238;-85
2022/11/18 13:31:44;;;;;;;11.60;10.90;;;10.60;99.90;;;;;;4890257;29;20233;-85
2022/11/18 13:34:18;;;;;;;6.30;5.93;;;10.80;99.90;;;;;;4890190;29;20212;-81
2022/11/18 13:36:47;;;;;;;6.43;6.13;;;11.00;99.90;;;;;;4889905;29;20205;-83
2022/11/18 13:39:20;;;;;;;2.63;2.43;;;11.10;99.90;;;;;;4909112;29;20217;-83
2022/11/18 13:41:58;;;;;;;10.90;10.30;;;11.00;99.90;;;;;;4894978;29;20222;-83
2022/11/18 13:44:27;;;;;;;5.13;4.80;;;11.00;99.90;;;;;;4911473;29;20211;-82
2022/11/18 13:47:00;;;;;;;3.07;2.87;;;10.90;99.90;;;;;;4893709;29;20224;-83
2022/11/18 13:49:37;;;;;;;3.13;2.87;;;10.80;99.90;;;;;;4912486;29;20228;-83
2022/11/18 13:52:04;;;;;;;3.30;3.10;;;10.70;99.90;;;;;;4903334;29;20225;-83
2022/11/18 13:54:31;;;;;;;3.30;3.10;;;10.70;99.90;;;;;;4913542;29;20253;-83
2022/11/18 13:57:00;;;;;;;4.00;3.80;;;10.60;99.90;;;;;;4897952;29;20313;-83
2022/11/18 13:59:28;;;;;;;4.63;4.33;;;10.60;99.90;;;;;;4901730;29;20201;-83
2022/11/18 14:01:58;;;;;;;6.87;6.33;;;10.60;99.90;;;;;;4901785;29;20281;-83
2022/11/18 14:04:29;;;;;;;3.97;3.67;;;10.50;99.90;;;;;;4900914;29;20208;-83
2022/11/18 14:07:16;;;;;;;3.77;3.57;;;10.50;99.90;;;;;;4905192;29;20206;-84
2022/11/18 14:09:53;;;;;;;2.50;2.40;;;10.40;99.90;;;;;;4897097;29;20217;-83
2022/11/18 14:12:27;;;;;;;2.47;2.37;;;10.40;99.90;;;;;;4906916;29;20305;-83
2022/11/18 14:15:11;;;;;;;2.70;2.50;;;10.40;99.90;;;;;;4904279;29;20213;-83
2022/11/18 14:17:51;;;;;;;4.63;4.33;;;10.40;99.90;;;;;;4898132;29;20204;-83
2022/11/18 14:20:19;;;;;;;2.63;2.43;;;10.30;99.90;;;;;;4904533;29;20249;-82
2022/11/18 14:22:47;;;;;;;2.60;2.50;;;10.20;99.90;;;;;;4909697;29;20221;-81
2022/11/18 14:25:20;;;;;;;2.87;2.73;;;10.20;99.90;;;;;;4908191;29;20200;-83
2022/11/18 14:27:51;;;;;;;10.13;9.53;;;10.20;99.90;;;;;;4899879;29;20209;-82
2022/11/18 14:30:34;;;;;;;8.33;7.73;;;10.20;99.90;;;;;;4909297;29;20205;-83
2022/11/18 14:33:20;;;;;;;2.87;2.67;;;10.10;99.90;;;;;;4895343;29;20213;-83
2022/11/18 14:35:53;;;;;;;9.97;9.43;;;10.10;99.90;;;;;;4902187;29;20200;-83
2022/11/18 14:38:22;;;;;;;10.70;10.10;;;10.10;99.90;;;;;;4914567;29;20252;-83
2022/11/18 14:40:55;;;;;;;10.97;10.37;;;10.00;99.90;;;;;;4909420;29;20306;-83
2022/11/18 14:43:24;;;;;;;10.70;10.10;;;10.00;99.90;;;;;;4903733;29;20312;-83
2022/11/18 14:45:54;;;;;;;10.90;10.30;;;10.00;99.90;;;;;;4908373;29;20205;-83
2022/11/18 14:48:23;;;;;;;10.90;10.30;;;10.00;99.90;;;;;;4911537;29;20228;-83
2022/11/18 14:50:51;;;;;;;10.80;10.20;;;9.90;99.90;;;;;;4913533;29;20593;-81
2022/11/18 14:53:18;;;;;;;10.40;9.80;;;9.80;99.90;;;;;;4908291;29;20200;-84
2022/11/18 14:55:47;;;;;;;10.40;9.80;;;9.70;99.90;;;;;;4893321;29;20198;-82
2022/11/18 14:58:15;;;;;;;10.43;9.83;;;9.70;99.90;;;;;;4909494;29;20192;-84
2022/11/18 15:00:45;;;;;;;10.30;9.80;;;9.60;99.90;;;;;;4909722;29;20199;-84
2022/11/18 15:03:12;;;;;;;10.30;9.80;;;9.50;99.90;;;;;;4907411;29;20219;-84
2022/11/18 15:05:40;;;;;;;6.50;6.13;;;9.40;99.90;;;;;;4906010;29;20259;-84
2022/11/18 15:08:07;;;;;;;8.63;7.93;;;9.30;99.90;;;;;;4913262;29;20331;-84
2022/11/18 15:10:35;;;;;;;9.70;9.10;;;9.20;99.90;;;;;;4912270;29;20199;-84
2022/11/18 15:13:02;;;;;;;10.87;10.20;;;9.10;99.90;;;;;;4909477;29;20217;-84
2022/11/18 15:15:29;;;;;;;6.83;6.43;;;9.10;99.90;;;;;;4901849;29;20206;-84
2022/11/18 15:17:57;;;;;;;11.33;10.73;;;9.10;99.90;;;;;;4909841;29;20291;-84
2022/11/18 15:20:24;;;;;;;6.30;6.00;;;9.10;99.90;;;;;;4918733;29;20210;-84
2022/11/18 15:22:50;;;;;;;6.40;6.00;;;9.10;99.90;;;;;;4914918;29;20211;-84
2022/11/18 15:25:17;;;;;;;8.33;7.80;;;9.10;99.90;;;;;;4919852;29;20200;-84
2022/11/18 15:27:44;;;;;;;3.77;3.53;;;9.10;99.90;;;;;;4918163;29;20226;-84
2022/11/18 15:30:14;;;;;;;5.67;5.37;;;9.10;99.90;;;;;;4920822;29;20208;-84
2022/11/18 15:32:42;;;;;;;5.13;4.83;;;9.00;99.90;;;;;;4918831;29;20232;-83
2022/11/18 15:35:12;;;;;;;7.53;7.13;;;9.00;99.90;;;;;;4901977;29;20297;-83
2022/11/18 15:37:40;;;;;;;3.33;3.00;;;9.00;99.90;;;;;;4915858;29;20192;-84
2022/11/18 15:40:08;;;;;;;6.70;6.30;;;9.00;99.90;;;;;;4912701;29;20211;-84
2022/11/18 15:42:34;;;;;;;3.73;3.43;;;8.90;99.90;;;;;;4909507;29;20216;-84
2022/11/18 15:45:01;;;;;;;4.90;4.60;;;8.90;99.90;;;;;;4907798;29;20217;-79
2022/11/18 15:47:28;;;;;;;4.37;3.57;;;8.90;99.90;;;;;;4899964;29;20200;-84
2022/11/18 15:49:55;;;;;;;6.53;6.03;;;8.90;99.90;;;;;;4908874;29;20211;-84
2022/11/18 15:52:23;;;;;;;5.33;5.03;;;8.90;99.90;;;;;;4901386;29;20228;-84
2022/11/18 15:54:50;;;;;;;12.77;11.90;;;8.90;99.90;;;;;;4892815;29;20573;-83
2022/11/18 15:57:17;;;;;;;4.47;4.17;;;8.80;99.90;;;;;;4901871;29;20204;-84
2022/11/18 15:59:44;;;;;;;5.13;4.83;;;8.80;99.90;;;;;;4885360;29;20205;-83
2022/11/18 16:02:11;;;;;;;5.63;5.17;;;8.70;99.90;;;;;;4897270;29;20220;-84
2022/11/18 16:04:38;;;;;;;5.90;5.40;;;8.60;99.90;;;;;;4911774;29;20283;-86
2022/11/18 16:07:05;;;;;;;6.10;5.67;;;8.60;99.90;;;;;;4907137;29;20199;-85
2022/11/18 16:17:47;;;;;;;5.43;4.43;;;8.40;99.90;;;;;;4900799;29;20228;-80
2022/11/18 16:20:14;;;;;;;4.33;4.03;;;8.40;99.90;;;;;;4909949;29;20207;-83
2022/11/18 16:22:41;;;;;;;3.50;3.20;;;8.30;99.90;;;;;;4904264;29;20723;-83
2022/11/18 16:25:09;;;;;;;4.00;3.60;;;8.30;99.90;;;;;;4911306;29;20217;-83
2022/11/18 16:27:36;;;;;;;4.67;3.90;;;8.30;99.90;;;;;;4905699;29;20584;-82
2022/11/18 16:30:04;;;;;;;5.73;5.33;;;8.20;99.90;;;;;;4912110;29;20232;-81
2022/11/18 16:32:31;;;;;;;10.10;9.47;;;8.10;99.90;;;;;;4901349;29;20285;-82
2022/11/18 16:34:58;;;;;;;3.60;3.30;;;8.10;99.90;;;;;;4907628;29;20247;-84
2022/11/18 16:37:25;;;;;;;5.80;5.27;;;8.00;99.90;;;;;;4906039;29;20214;-80
2022/11/18 16:39:52;;;;;;;7.60;7.00;;;8.00;99.90;;;;;;4906428;29;20211;-81
2022/11/18 16:42:20;;;;;;;7.40;6.70;;;7.90;99.90;;;;;;4907168;29;20229;-81
2022/11/18 16:44:47;;;;;;;10.50;9.70;;;8.00;99.90;;;;;;4888022;29;20209;-81
2022/11/18 16:47:14;;;;;;;5.77;5.27;;;7.90;99.90;;;;;;4896294;29;20216;-81
2022/11/18 16:49:41;;;;;;;5.03;4.63;;;7.90;99.90;;;;;;4904500;29;20224;-82
2022/11/18 16:52:09;;;;;;;4.80;4.40;;;7.90;99.90;;;;;;4904940;29;20225;-83
2022/11/18 16:54:36;;;;;;;5.60;5.10;;;7.90;99.90;;;;;;4915406;29;20288;-82
2022/11/18 16:57:02;;;;;;;4.50;4.10;;;7.90;99.90;;;;;;4900577;29;20207;-82
2022/11/18 16:59:31;;;;;;;4.60;4.20;;;7.90;99.90;;;;;;4912368;29;20199;-82
2022/11/18 17:01:59;;;;;;;7.17;5.40;;;7.90;99.90;;;;;;4910680;29;20237;-82
2022/11/18 17:04:27;;;;;;;4.90;4.27;;;7.90;99.90;;;;;;4912030;29;20281;-82
2022/11/18 17:06:55;;;;;;;4.43;3.73;;;7.80;99.90;;;;;;4904410;29;20217;-85
2022/11/18 17:09:23;;;;;;;11.00;10.20;;;7.70;99.90;;;;;;4905454;29;20918;-85
2022/11/18 17:11:51;;;;;;;10.50;9.70;;;7.70;99.90;;;;;;4906136;29;20236;-85
2022/11/18 17:14:18;;;;;;;13.63;12.73;;;7.60;99.90;;;;;;4914036;29;20204;-85
2022/11/18 17:16:46;;;;;;;13.23;12.43;;;7.60;99.90;;;;;;4902151;29;20752;-85
2022/11/18 17:19:15;;;;;;;8.67;7.97;;;7.70;99.90;;;;;;4906715;29;20204;-85
2022/11/18 17:21:42;;;;;;;9.63;8.83;;;7.70;99.90;;;;;;4903089;29;20224;-85
2022/11/18 17:24:12;;;;;;;13.27;12.47;;;7.60;99.90;;;;;;4906396;29;20212;-85
2022/11/18 17:26:38;;;;;;;13.10;12.17;;;7.60;99.90;;;;;;4909496;29;20701;-85
2022/11/18 17:29:05;;;;;;;13.00;12.10;;;7.60;99.90;;;;;;4892765;29;20228;-83
2022/11/18 17:31:33;;;;;;;12.73;11.93;;;7.50;99.90;;;;;;4896809;29;20235;-86
2022/11/18 17:34:01;;;;;;;12.70;11.90;;;7.40;99.90;;;;;;4894476;29;20674;-86
2022/11/18 17:36:29;;;;;;;12.97;12.10;;;7.40;99.90;;;;;;4923768;29;20214;-86
2022/11/18 17:38:58;;;;;;;12.33;11.43;;;7.30;99.90;;;;;;4906300;29;20645;-86
2022/11/18 17:44:14;;;;;;;12.63;11.93;;;7.30;99.90;;;;;;4908415;29;20253;-86
2022/11/18 17:46:42;;;;;;;12.70;11.80;;;7.30;99.90;;;;;;4905929;29;20211;-82
2022/11/18 17:49:14;;;;;;;13.30;12.40;;;7.30;99.90;;;;;;4914181;29;20270;-83
2022/11/18 17:51:41;;;;;;;13.07;12.30;;;7.30;99.90;;;;;;4903819;29;20295;-79
2022/11/18 17:54:09;;;;;;;12.23;11.53;;;7.20;99.90;;;;;;4907036;29;20222;-86
2022/11/18 17:56:37;;;;;;;12.63;11.80;;;7.20;99.90;;;;;;4904876;29;20283;-86
2022/11/18 17:59:03;;;;;;;12.50;11.63;;;7.20;99.90;;;;;;4908133;29;20202;-86
2022/11/18 18:01:31;;;;;;;12.20;11.50;;;7.20;99.90;;;;;;4911680;29;20236;-86
2022/11/18 18:03:58;;;;;;;12.90;12.00;;;7.10;99.90;;;;;;4893992;29;20217;-86
2022/11/18 18:06:26;;;;;;;12.80;12.00;;;7.10;99.90;;;;;;4886482;29;20590;-86
2022/11/18 18:08:56;;;;;;;12.90;12.10;;;7.10;99.90;;;;;;4896975;29;20317;-86
2022/11/18 18:11:23;;;;;;;13.77;12.87;;;7.10;99.90;;;;;;4904644;29;20233;-86
2022/11/18 18:16:34;;;;;;;14.03;13.17;;;7.10;99.90;;;;;;4899992;29;20220;-86
2022/11/18 18:19:03;;;;;;;14.00;13.20;;;7.20;99.90;;;;;;4912614;29;20197;-86
2022/11/18 18:21:32;;;;;;;14.20;13.40;;;7.20;99.90;;;;;;4892335;29;20716;-85
2022/11/18 18:23:59;;;;;;;13.33;12.63;;;7.20;99.90;;;;;;4903924;29;20204;-86
2022/11/18 18:26:26;;;;;;;13.20;12.50;;;7.20;99.90;;;;;;4914150;29;20198;-85
2022/11/18 18:28:53;;;;;;;13.47;12.67;;;7.20;99.90;;;;;;4882554;29;20228;-85
2022/11/18 18:31:20;;;;;;;12.73;11.97;;;7.10;99.90;;;;;;4911444;29;20241;-86
2022/11/18 18:33:47;;;;;;;13.17;12.37;;;7.10;99.90;;;;;;4903698;29;20203;-86
2022/11/18 18:36:16;;;;;;;12.43;11.73;;;7.00;99.90;;;;;;4909158;29;20353;-85
2022/11/18 18:38:45;;;;;;;12.83;12.10;;;7.10;99.90;;;;;;4899455;29;20190;-85
2022/11/18 18:41:14;;;;;;;12.97;12.07;;;7.10;99.90;;;;;;4901689;29;20226;-85
2022/11/18 18:43:41;;;;;;;13.27;12.47;;;7.20;99.90;;;;;;4910696;29;20211;-85
2022/11/18 18:46:28;;;;;;;13.10;12.30;;;7.20;99.90;;;;;;4899647;29;20228;-85
2022/11/18 18:48:57;;;;;;;13.10;12.30;;;7.30;99.90;;;;;;4907879;29;20225;-85
2022/11/18 18:51:24;;;;;;;13.63;12.83;;;7.30;99.90;;;;;;4900892;29;20246;-86
2022/11/18 18:53:52;;;;;;;13.23;12.40;;;7.30;99.90;;;;;;4910256;29;20276;-85
2022/11/18 18:56:19;;;;;;;13.17;12.37;;;7.30;99.90;;;;;;4900776;29;20207;-85
2022/11/18 18:58:46;;;;;;;13.20;12.37;;;7.30;99.90;;;;;;4899855;29;20676;-85
2022/11/18 19:01:15;;;;;;;13.10;12.30;;;7.30;99.90;;;;;;4904626;29;20226;-85
2022/11/18 19:03:43;;;;;;;13.20;12.40;;;7.40;99.90;;;;;;4901463;29;20207;-85
2022/11/18 19:06:19;;;;;;;13.30;12.50;;;7.40;99.90;;;;;;4907024;29;20210;-81
2022/11/18 19:08:48;;;;;;;13.80;12.90;;;7.40;99.90;;;;;;4902651;29;20235;-85
2022/11/18 19:14:02;;;;;;;14.30;13.40;;;7.30;99.90;;;;;;4900177;29;20242;-85
2022/11/18 19:16:29;;;;;;;13.80;12.90;;;7.20;99.90;;;;;;4908540;29;20589;-84
2022/11/18 19:18:57;;;;;;;14.30;13.30;;;7.20;99.90;;;;;;4896925;29;20207;-86
2022/11/18 19:21:24;;;;;;;14.00;13.10;;;7.20;99.90;;;;;;4900683;29;20225;-86
2022/11/18 19:23:51;;;;;;;14.00;13.10;;;7.20;99.90;;;;;;4909159;29;20212;-86
2022/11/18 19:26:19;;;;;;;14.73;13.73;;;7.30;99.90;;;;;;4904014;29;20208;-86
2022/11/18 19:28:46;;;;;;;13.40;12.50;;;7.30;99.90;;;;;;4916443;29;20229;-86
2022/11/18 19:31:14;;;;;;;13.83;12.93;;;7.30;99.90;;;;;;4888440;29;20219;-86
2022/11/18 19:33:41;;;;;;;14.33;13.27;;;7.30;99.90;;;;;;4910344;29;20239;-86
2022/11/18 19:36:10;;;;;;;13.30;12.37;;;7.30;99.90;;;;;;4911670;29;20215;-87
2022/11/18 19:38:36;;;;;;;13.50;12.60;;;7.30;99.90;;;;;;4904688;29;20210;-87
2022/11/18 19:41:04;;;;;;;13.00;12.20;;;7.40;99.90;;;;;;4909735;29;20722;-86
2022/11/18 19:43:33;;;;;;;13.53;12.63;;;7.40;99.90;;;;;;4898714;29;20685;-86
2022/11/18 19:46:01;;;;;;;15.40;14.30;;;7.40;99.90;;;;;;4905527;29;20212;-86
2022/11/18 19:48:28;;;;;;;15.57;14.47;;;7.40;99.90;;;;;;4892425;29;20205;-86
2022/11/18 19:51:05;;;;;;;15.90;14.80;;;7.40;99.90;;;;;;4901668;29;20261;-86
2022/11/18 19:53:34;;;;;;;14.63;13.73;;;7.40;99.90;;;;;;4894420;29;20666;-86
2022/11/18 19:56:03;;;;;;;14.13;13.20;;;7.50;99.90;;;;;;4896620;29;20205;-86
2022/11/18 19:58:36;;;;;;;13.60;12.70;;;7.50;99.90;;;;;;4898945;29;20570;-85
2022/11/18 20:01:11;;;;;;;14.33;13.40;;;7.50;99.90;;;;;;4905866;29;20231;-86
2022/11/18 20:03:38;;;;;;;13.43;12.63;;;7.50;99.90;;;;;;4898685;29;20219;-86
2022/11/18 20:06:06;;;;;;;13.63;12.73;;;7.50;99.90;;;;;;4895249;29;20212;-86
2022/11/18 20:08:35;;;;;;;13.40;12.60;;;7.50;99.90;;;;;;4896730;29;20207;-86
2022/11/18 20:11:04;;;;;;;14.13;13.23;;;7.50;99.90;;;;;;4909813;29;20227;-85
2022/11/18 20:13:32;;;;;;;13.17;12.37;;;7.40;99.90;;;;;;4912539;29;20563;-86
2022/11/18 20:16:05;;;;;;;13.67;12.77;;;7.40;99.90;;;;;;4896298;29;20204;-86
2022/11/18 20:18:32;;;;;;;13.77;12.87;;;7.30;99.90;;;;;;4902033;29;20200;-84
2022/11/18 20:21:05;;;;;;;14.07;13.23;;;7.30;99.90;;;;;;4907184;29;20228;-85
2022/11/18 20:23:32;;;;;;;13.70;12.90;;;7.20;99.90;;;;;;4903460;29;20240;-84
2022/11/18 20:26:02;;;;;;;14.13;13.23;;;7.10;99.90;;;;;;4905550;29;20206;-84
2022/11/18 20:28:29;;;;;;;13.90;13.10;;;7.10;99.90;;;;;;4901380;29;20697;-84
2022/11/18 20:30:56;;;;;;;14.10;13.20;;;7.10;99.90;;;;;;4903662;29;20242;-84
2022/11/18 20:33:24;;;;;;;14.10;13.20;;;7.00;99.90;;;;;;4903215;29;20210;-83
2022/11/18 20:35:51;;;;;;;13.87;12.97;;;7.00;99.90;;;;;;4907340;29;20197;-84
2022/11/18 20:38:18;;;;;;;13.77;12.87;;;6.90;99.90;;;;;;4907505;29;20233;-83